sensor_id;sensor_type;location;lat;lon;timestamp;P1;durP1;ratioP1;P2;durP2;ratioP2
18125;SDS011;53956;52.442;13.284;2022-09-09T00:00:49;9.32;;;7.13;;
18125;SDS011;53956;52.442;13.284;2022-09-09T00:03:22;10.05;;;6.90;;
18125;SDS011;53956;52.442;13.284;2022-09-09T00:05:54;7.55;;;6.75;;
18125;SDS011;53956;52.442;13.284;2022-09-09T00:08:28;9.07;;;6.88;;
18125;SDS011;53956;52.442;13.284;2022-09-09T00:14:51;9.13;;;6.72;;
18125;SDS011;53956;52.442;13.284;2022-09-09T00:17:24;7.20;;;6.50;;
18125;SDS011;53956;52.442;13.284;2022-09-09T00:19:59;7.07;;;6.25;;
18125;SDS011;53956;52.442;13.284;2022-09-09T00:22:32;7.28;;;6.50;;
18125;SDS011;53956;52.442;13.284;2022-09-09T00:25:02;7.63;;;6.47;;
18125;SDS011;53956;52.442;13.284;2022-09-09T00:27:37;7.95;;;6.65;;
18125;SDS011;53956;52.442;13.284;2022-09-09T00:30:15;9.55;;;7.00;;
18125;SDS011;53956;52.442;13.284;2022-09-09T00:32:45;8.38;;;6.43;;
18125;SDS011;53956;52.442;13.284;2022-09-09T00:35:17;8.18;;;6.38;;
18125;SDS011;53956;52.442;13.284;2022-09-09T00:37:50;8.95;;;7.03;;
18125;SDS011;53956;52.442;13.284;2022-09-09T00:40:24;7.38;;;6.65;;
18125;SDS011;53956;52.442;13.284;2022-09-09T00:43:07;7.63;;;6.15;;
18125;SDS011;53956;52.442;13.284;2022-09-09T00:45:55;8.57;;;6.90;;
18125;SDS011;53956;52.442;13.284;2022-09-09T00:48:46;9.85;;;7.22;;
18125;SDS011;53956;52.442;13.284;2022-09-09T00:51:23;7.90;;;7.20;;
18125;SDS011;53956;52.442;13.284;2022-09-09T00:53:58;9.82;;;7.60;;
18125;SDS011;53956;52.442;13.284;2022-09-09T00:56:37;8.32;;;7.45;;
18125;SDS011;53956;52.442;13.284;2022-09-09T00:59:11;8.38;;;7.47;;
18125;SDS011;53956;52.442;13.284;2022-09-09T01:01:49;7.65;;;6.70;;
18125;SDS011;53956;52.442;13.284;2022-09-09T01:04:18;7.72;;;6.93;;
18125;SDS011;53956;52.442;13.284;2022-09-09T01:06:53;8.07;;;7.20;;
18125;SDS011;53956;52.442;13.284;2022-09-09T01:09:27;7.78;;;7.03;;
18125;SDS011;53956;52.442;13.284;2022-09-09T01:12:01;8.82;;;6.88;;
18125;SDS011;53956;52.442;13.284;2022-09-09T01:14:38;9.85;;;7.30;;
18125;SDS011;53956;52.442;13.284;2022-09-09T01:17:13;9.80;;;7.47;;
18125;SDS011;53956;52.442;13.284;2022-09-09T01:19:52;7.90;;;7.03;;
18125;SDS011;53956;52.442;13.284;2022-09-09T01:22:33;9.77;;;7.30;;
18125;SDS011;53956;52.442;13.284;2022-09-09T01:25:12;8.10;;;7.30;;
18125;SDS011;53956;52.442;13.284;2022-09-09T01:27:56;9.85;;;7.50;;
18125;SDS011;53956;52.442;13.284;2022-09-09T01:30:27;7.55;;;6.75;;
18125;SDS011;53956;52.442;13.284;2022-09-09T01:32:58;7.93;;;6.70;;
18125;SDS011;53956;52.442;13.284;2022-09-09T01:35:29;10.02;;;7.20;;
18125;SDS011;53956;52.442;13.284;2022-09-09T01:38:04;8.43;;;7.43;;
18125;SDS011;53956;52.442;13.284;2022-09-09T01:40:32;7.65;;;6.63;;
18125;SDS011;53956;52.442;13.284;2022-09-09T01:43:01;9.73;;;7.03;;
18125;SDS011;53956;52.442;13.284;2022-09-09T01:45:28;8.57;;;7.10;;
18125;SDS011;53956;52.442;13.284;2022-09-09T01:47:56;7.85;;;6.80;;
18125;SDS011;53956;52.442;13.284;2022-09-09T01:50:39;9.40;;;6.72;;
18125;SDS011;53956;52.442;13.284;2022-09-09T01:53:06;10.68;;;7.07;;
18125;SDS011;53956;52.442;13.284;2022-09-09T01:55:36;9.52;;;6.63;;
18125;SDS011;53956;52.442;13.284;2022-09-09T01:58:18;8.85;;;6.85;;
18125;SDS011;53956;52.442;13.284;2022-09-09T02:01:00;8.35;;;6.65;;
18125;SDS011;53956;52.442;13.284;2022-09-09T02:03:32;7.57;;;6.88;;
18125;SDS011;53956;52.442;13.284;2022-09-09T02:06:19;9.07;;;7.30;;
18125;SDS011;53956;52.442;13.284;2022-09-09T02:08:56;7.70;;;6.95;;
18125;SDS011;53956;52.442;13.284;2022-09-09T02:11:26;7.72;;;6.93;;
18125;SDS011;53956;52.442;13.284;2022-09-09T02:14:03;9.13;;;7.50;;
18125;SDS011;53956;52.442;13.284;2022-09-09T02:16:34;8.93;;;6.93;;
18125;SDS011;53956;52.442;13.284;2022-09-09T02:19:08;9.32;;;7.15;;
18125;SDS011;53956;52.442;13.284;2022-09-09T02:21:55;8.85;;;6.45;;
18125;SDS011;53956;52.442;13.284;2022-09-09T02:24:24;8.35;;;6.80;;
18125;SDS011;53956;52.442;13.284;2022-09-09T02:27:03;7.93;;;7.00;;
18125;SDS011;53956;52.442;13.284;2022-09-09T02:29:36;10.05;;;7.25;;
18125;SDS011;53956;52.442;13.284;2022-09-09T02:32:06;8.57;;;7.15;;
18125;SDS011;53956;52.442;13.284;2022-09-09T02:34:39;9.02;;;7.05;;
18125;SDS011;53956;52.442;13.284;2022-09-09T02:37:08;7.65;;;6.88;;
18125;SDS011;53956;52.442;13.284;2022-09-09T02:39:40;9.25;;;7.25;;
18125;SDS011;53956;52.442;13.284;2022-09-09T02:42:10;8.30;;;6.60;;
18125;SDS011;53956;52.442;13.284;2022-09-09T02:44:41;8.07;;;7.28;;
18125;SDS011;53956;52.442;13.284;2022-09-09T02:49:56;8.20;;;7.25;;
18125;SDS011;53956;52.442;13.284;2022-09-09T02:52:33;10.65;;;6.97;;
18125;SDS011;53956;52.442;13.284;2022-09-09T02:55:07;8.35;;;7.20;;
18125;SDS011;53956;52.442;13.284;2022-09-09T02:57:39;8.13;;;7.32;;
18125;SDS011;53956;52.442;13.284;2022-09-09T03:00:12;8.52;;;6.80;;
18125;SDS011;53956;52.442;13.284;2022-09-09T03:02:40;8.95;;;7.63;;
18125;SDS011;53956;52.442;13.284;2022-09-09T03:05:08;11.38;;;6.93;;
18125;SDS011;53956;52.442;13.284;2022-09-09T03:07:36;8.30;;;7.07;;
18125;SDS011;53956;52.442;13.284;2022-09-09T03:10:03;8.85;;;6.78;;
18125;SDS011;53956;52.442;13.284;2022-09-09T03:12:31;9.10;;;7.13;;
18125;SDS011;53956;52.442;13.284;2022-09-09T03:14:58;7.97;;;7.10;;
18125;SDS011;53956;52.442;13.284;2022-09-09T03:17:26;9.95;;;6.93;;
18125;SDS011;53956;52.442;13.284;2022-09-09T03:19:54;8.50;;;7.22;;
18125;SDS011;53956;52.442;13.284;2022-09-09T03:22:23;7.82;;;7.03;;
18125;SDS011;53956;52.442;13.284;2022-09-09T03:24:50;10.00;;;7.15;;
18125;SDS011;53956;52.442;13.284;2022-09-09T03:27:17;7.22;;;6.53;;
18125;SDS011;53956;52.442;13.284;2022-09-09T03:29:45;9.73;;;7.15;;
18125;SDS011;53956;52.442;13.284;2022-09-09T03:32:17;10.00;;;6.80;;
18125;SDS011;53956;52.442;13.284;2022-09-09T03:34:46;7.53;;;6.78;;
18125;SDS011;53956;52.442;13.284;2022-09-09T03:37:14;8.40;;;7.38;;
18125;SDS011;53956;52.442;13.284;2022-09-09T03:39:42;9.30;;;7.35;;
18125;SDS011;53956;52.442;13.284;2022-09-09T03:42:11;10.00;;;7.22;;
18125;SDS011;53956;52.442;13.284;2022-09-09T03:44:39;8.50;;;7.22;;
18125;SDS011;53956;52.442;13.284;2022-09-09T03:47:07;10.07;;;7.20;;
18125;SDS011;53956;52.442;13.284;2022-09-09T03:49:34;9.00;;;7.05;;
18125;SDS011;53956;52.442;13.284;2022-09-09T03:52:02;10.75;;;7.20;;
18125;SDS011;53956;52.442;13.284;2022-09-09T03:54:29;9.85;;;7.40;;
18125;SDS011;53956;52.442;13.284;2022-09-09T03:56:55;8.88;;;7.40;;
18125;SDS011;53956;52.442;13.284;2022-09-09T03:59:23;8.95;;;7.00;;
18125;SDS011;53956;52.442;13.284;2022-09-09T04:01:50;8.90;;;7.25;;
18125;SDS011;53956;52.442;13.284;2022-09-09T04:04:17;9.18;;;7.72;;
18125;SDS011;53956;52.442;13.284;2022-09-09T04:06:45;8.38;;;7.05;;
18125;SDS011;53956;52.442;13.284;2022-09-09T04:09:14;10.98;;;7.10;;
18125;SDS011;53956;52.442;13.284;2022-09-09T04:11:41;8.48;;;7.13;;
18125;SDS011;53956;52.442;13.284;2022-09-09T04:14:07;9.25;;;6.82;;
18125;SDS011;53956;52.442;13.284;2022-09-09T04:16:34;8.75;;;6.70;;
18125;SDS011;53956;52.442;13.284;2022-09-09T04:19:02;10.07;;;7.13;;
18125;SDS011;53956;52.442;13.284;2022-09-09T04:21:32;8.55;;;7.30;;
18125;SDS011;53956;52.442;13.284;2022-09-09T04:24:00;9.27;;;7.30;;
18125;SDS011;53956;52.442;13.284;2022-09-09T04:26:28;8.68;;;6.85;;
18125;SDS011;53956;52.442;13.284;2022-09-09T04:28:54;8.45;;;6.70;;
18125;SDS011;53956;52.442;13.284;2022-09-09T04:31:22;7.93;;;6.65;;
18125;SDS011;53956;52.442;13.284;2022-09-09T04:33:52;8.32;;;6.88;;
18125;SDS011;53956;52.442;13.284;2022-09-09T04:36:19;9.13;;;7.35;;
18125;SDS011;53956;52.442;13.284;2022-09-09T04:38:48;7.60;;;6.80;;
18125;SDS011;53956;52.442;13.284;2022-09-09T04:41:15;10.02;;;6.90;;
18125;SDS011;53956;52.442;13.284;2022-09-09T04:43:45;7.65;;;6.63;;
18125;SDS011;53956;52.442;13.284;2022-09-09T04:46:13;9.00;;;6.63;;
18125;SDS011;53956;52.442;13.284;2022-09-09T04:48:42;7.82;;;6.50;;
18125;SDS011;53956;52.442;13.284;2022-09-09T04:51:11;9.30;;;6.80;;
18125;SDS011;53956;52.442;13.284;2022-09-09T04:53:39;7.25;;;6.35;;
18125;SDS011;53956;52.442;13.284;2022-09-09T04:56:07;8.48;;;6.53;;
18125;SDS011;53956;52.442;13.284;2022-09-09T04:58:40;9.02;;;7.00;;
18125;SDS011;53956;52.442;13.284;2022-09-09T05:01:10;8.40;;;7.10;;
18125;SDS011;53956;52.442;13.284;2022-09-09T05:03:39;8.02;;;6.88;;
18125;SDS011;53956;52.442;13.284;2022-09-09T05:06:10;7.40;;;6.10;;
18125;SDS011;53956;52.442;13.284;2022-09-09T05:08:39;7.28;;;6.20;;
18125;SDS011;53956;52.442;13.284;2022-09-09T05:11:15;7.68;;;6.32;;
18125;SDS011;53956;52.442;13.284;2022-09-09T05:13:42;7.35;;;5.95;;
18125;SDS011;53956;52.442;13.284;2022-09-09T05:16:11;8.50;;;6.05;;
18125;SDS011;53956;52.442;13.284;2022-09-09T05:18:38;8.25;;;5.97;;
18125;SDS011;53956;52.442;13.284;2022-09-09T05:21:06;7.00;;;5.30;;
18125;SDS011;53956;52.442;13.284;2022-09-09T05:23:33;7.90;;;6.13;;
18125;SDS011;53956;52.442;13.284;2022-09-09T05:26:00;7.80;;;5.95;;
18125;SDS011;53956;52.442;13.284;2022-09-09T05:28:28;8.63;;;5.60;;
18125;SDS011;53956;52.442;13.284;2022-09-09T05:30:56;7.47;;;5.53;;
18125;SDS011;53956;52.442;13.284;2022-09-09T05:33:25;9.38;;;5.82;;
18125;SDS011;53956;52.442;13.284;2022-09-09T05:35:56;10.52;;;5.80;;
18125;SDS011;53956;52.442;13.284;2022-09-09T05:38:24;6.38;;;5.38;;
18125;SDS011;53956;52.442;13.284;2022-09-09T05:40:51;6.95;;;5.20;;
18125;SDS011;53956;52.442;13.284;2022-09-09T05:43:18;7.55;;;4.55;;
18125;SDS011;53956;52.442;13.284;2022-09-09T05:45:45;7.88;;;4.60;;
18125;SDS011;53956;52.442;13.284;2022-09-09T05:48:13;7.40;;;4.07;;
18125;SDS011;53956;52.442;13.284;2022-09-09T05:50:42;5.32;;;3.70;;
18125;SDS011;53956;52.442;13.284;2022-09-09T05:53:10;4.60;;;3.40;;
18125;SDS011;53956;52.442;13.284;2022-09-09T05:55:37;7.63;;;3.40;;
18125;SDS011;53956;52.442;13.284;2022-09-09T05:58:03;5.40;;;3.00;;
18125;SDS011;53956;52.442;13.284;2022-09-09T06:00:30;6.05;;;3.28;;
18125;SDS011;53956;52.442;13.284;2022-09-09T06:02:58;4.70;;;2.70;;
18125;SDS011;53956;52.442;13.284;2022-09-09T06:05:25;5.20;;;2.67;;
18125;SDS011;53956;52.442;13.284;2022-09-09T06:07:55;7.78;;;2.50;;
18125;SDS011;53956;52.442;13.284;2022-09-09T06:10:23;3.83;;;2.33;;
18125;SDS011;53956;52.442;13.284;2022-09-09T06:12:52;5.50;;;2.65;;
18125;SDS011;53956;52.442;13.284;2022-09-09T06:15:19;3.88;;;2.38;;
18125;SDS011;53956;52.442;13.284;2022-09-09T06:17:46;4.20;;;2.22;;
18125;SDS011;53956;52.442;13.284;2022-09-09T06:20:14;6.30;;;2.20;;
18125;SDS011;53956;52.442;13.284;2022-09-09T06:22:41;2.45;;;2.00;;
18125;SDS011;53956;52.442;13.284;2022-09-09T06:25:09;5.57;;;2.10;;
18125;SDS011;53956;52.442;13.284;2022-09-09T06:27:37;3.45;;;2.20;;
18125;SDS011;53956;52.442;13.284;2022-09-09T06:30:04;4.13;;;2.00;;
18125;SDS011;53956;52.442;13.284;2022-09-09T06:32:32;5.45;;;1.90;;
18125;SDS011;53956;52.442;13.284;2022-09-09T06:35:02;4.50;;;1.90;;
18125;SDS011;53956;52.442;13.284;2022-09-09T06:37:30;3.25;;;2.10;;
18125;SDS011;53956;52.442;13.284;2022-09-09T06:39:56;4.63;;;2.05;;
18125;SDS011;53956;52.442;13.284;2022-09-09T06:42:24;4.50;;;2.25;;
18125;SDS011;53956;52.442;13.284;2022-09-09T06:45:03;4.68;;;2.20;;
18125;SDS011;53956;52.442;13.284;2022-09-09T06:47:35;4.00;;;2.30;;
18125;SDS011;53956;52.442;13.284;2022-09-09T06:50:03;5.00;;;2.50;;
18125;SDS011;53956;52.442;13.284;2022-09-09T06:52:33;5.22;;;2.03;;
18125;SDS011;53956;52.442;13.284;2022-09-09T06:55:01;3.10;;;2.00;;
18125;SDS011;53956;52.442;13.284;2022-09-09T06:57:30;4.90;;;2.20;;
18125;SDS011;53956;52.442;13.284;2022-09-09T06:59:57;6.68;;;1.95;;
18125;SDS011;53956;52.442;13.284;2022-09-09T07:02:24;4.78;;;1.77;;
18125;SDS011;53956;52.442;13.284;2022-09-09T07:04:51;4.80;;;1.90;;
18125;SDS011;53956;52.442;13.284;2022-09-09T07:07:18;5.25;;;1.73;;
18125;SDS011;53956;52.442;13.284;2022-09-09T07:09:45;4.00;;;1.50;;
18125;SDS011;53956;52.442;13.284;2022-09-09T07:12:11;3.50;;;1.70;;
18125;SDS011;53956;52.442;13.284;2022-09-09T07:14:47;5.72;;;1.65;;
18125;SDS011;53956;52.442;13.284;2022-09-09T07:17:14;3.80;;;1.52;;
18125;SDS011;53956;52.442;13.284;2022-09-09T07:19:41;3.90;;;1.60;;
18125;SDS011;53956;52.442;13.284;2022-09-09T07:22:08;2.83;;;1.60;;
18125;SDS011;53956;52.442;13.284;2022-09-09T07:24:36;4.15;;;1.50;;
18125;SDS011;53956;52.442;13.284;2022-09-09T07:27:03;3.42;;;1.73;;
18125;SDS011;53956;52.442;13.284;2022-09-09T07:29:30;5.35;;;1.60;;
18125;SDS011;53956;52.442;13.284;2022-09-09T07:31:59;3.95;;;1.63;;
18125;SDS011;53956;52.442;13.284;2022-09-09T07:34:31;2.80;;;1.30;;
18125;SDS011;53956;52.442;13.284;2022-09-09T07:36:58;3.28;;;1.50;;
18125;SDS011;53956;52.442;13.284;2022-09-09T07:39:25;3.60;;;1.40;;
18125;SDS011;53956;52.442;13.284;2022-09-09T07:41:53;3.33;;;1.58;;
18125;SDS011;53956;52.442;13.284;2022-09-09T07:44:22;3.05;;;1.50;;
18125;SDS011;53956;52.442;13.284;2022-09-09T07:47:04;4.45;;;1.50;;
18125;SDS011;53956;52.442;13.284;2022-09-09T07:49:35;4.15;;;1.30;;
18125;SDS011;53956;52.442;13.284;2022-09-09T07:52:04;4.50;;;1.50;;
18125;SDS011;53956;52.442;13.284;2022-09-09T07:54:32;4.63;;;1.20;;
18125;SDS011;53956;52.442;13.284;2022-09-09T07:57:00;4.00;;;1.42;;
18125;SDS011;53956;52.442;13.284;2022-09-09T07:59:30;3.35;;;1.27;;
18125;SDS011;53956;52.442;13.284;2022-09-09T08:01:57;4.22;;;1.35;;
18125;SDS011;53956;52.442;13.284;2022-09-09T08:04:28;3.13;;;1.10;;
18125;SDS011;53956;52.442;13.284;2022-09-09T08:06:55;6.35;;;1.60;;
18125;SDS011;53956;52.442;13.284;2022-09-09T08:09:25;5.00;;;1.50;;
18125;SDS011;53956;52.442;13.284;2022-09-09T08:11:57;4.28;;;1.50;;
18125;SDS011;53956;52.442;13.284;2022-09-09T08:14:25;3.38;;;1.60;;
18125;SDS011;53956;52.442;13.284;2022-09-09T08:16:52;5.03;;;1.60;;
18125;SDS011;53956;52.442;13.284;2022-09-09T08:19:21;4.97;;;1.67;;
18125;SDS011;53956;52.442;13.284;2022-09-09T08:21:50;3.42;;;1.50;;
18125;SDS011;53956;52.442;13.284;2022-09-09T08:24:17;6.20;;;2.03;;
18125;SDS011;53956;52.442;13.284;2022-09-09T08:26:47;5.50;;;1.80;;
18125;SDS011;53956;52.442;13.284;2022-09-09T08:29:17;4.22;;;1.73;;
18125;SDS011;53956;52.442;13.284;2022-09-09T08:31:46;6.80;;;2.08;;
18125;SDS011;53956;52.442;13.284;2022-09-09T08:34:15;4.55;;;1.88;;
18125;SDS011;53956;52.442;13.284;2022-09-09T08:36:47;5.35;;;2.70;;
18125;SDS011;53956;52.442;13.284;2022-09-09T08:39:19;6.07;;;1.95;;
18125;SDS011;53956;52.442;13.284;2022-09-09T08:42:07;3.92;;;1.80;;
18125;SDS011;53956;52.442;13.284;2022-09-09T08:45:05;7.93;;;1.90;;
18125;SDS011;53956;52.442;13.284;2022-09-09T08:47:42;4.25;;;1.80;;
18125;SDS011;53956;52.442;13.284;2022-09-09T08:50:21;6.78;;;2.13;;
18125;SDS011;53956;52.442;13.284;2022-09-09T08:52:59;5.45;;;2.10;;
18125;SDS011;53956;52.442;13.284;2022-09-09T08:55:35;6.50;;;3.85;;
18125;SDS011;53956;52.442;13.284;2022-09-09T08:58:11;3.05;;;2.00;;
18125;SDS011;53956;52.442;13.284;2022-09-09T09:00:44;5.75;;;1.90;;
18125;SDS011;53956;52.442;13.284;2022-09-09T09:03:28;3.95;;;1.70;;
18125;SDS011;53956;52.442;13.284;2022-09-09T09:06:04;5.18;;;2.08;;
18125;SDS011;53956;52.442;13.284;2022-09-09T09:08:38;3.90;;;1.70;;
18125;SDS011;53956;52.442;13.284;2022-09-09T09:11:14;5.75;;;2.58;;
18125;SDS011;53956;52.442;13.284;2022-09-09T09:13:41;4.28;;;2.00;;
18125;SDS011;53956;52.442;13.284;2022-09-09T09:16:17;4.03;;;2.20;;
18125;SDS011;53956;52.442;13.284;2022-09-09T09:18:51;4.18;;;1.90;;
18125;SDS011;53956;52.442;13.284;2022-09-09T09:21:21;3.70;;;2.15;;
18125;SDS011;53956;52.442;13.284;2022-09-09T09:23:56;3.60;;;1.95;;
18125;SDS011;53956;52.442;13.284;2022-09-09T09:26:29;5.47;;;2.17;;
18125;SDS011;53956;52.442;13.284;2022-09-09T09:28:59;6.00;;;2.20;;
18125;SDS011;53956;52.442;13.284;2022-09-09T09:31:34;6.70;;;1.77;;
18125;SDS011;53956;52.442;13.284;2022-09-09T09:34:00;4.82;;;2.05;;
18125;SDS011;53956;52.442;13.284;2022-09-09T09:36:33;5.40;;;1.80;;
18125;SDS011;53956;52.442;13.284;2022-09-09T09:39:04;3.75;;;1.65;;
18125;SDS011;53956;52.442;13.284;2022-09-09T09:41:35;3.30;;;1.67;;
18125;SDS011;53956;52.442;13.284;2022-09-09T09:44:05;6.00;;;1.88;;
18125;SDS011;53956;52.442;13.284;2022-09-09T09:46:48;5.20;;;1.60;;
18125;SDS011;53956;52.442;13.284;2022-09-09T09:49:15;6.32;;;1.77;;
18125;SDS011;53956;52.442;13.284;2022-09-09T09:51:42;3.70;;;1.73;;
18125;SDS011;53956;52.442;13.284;2022-09-09T09:54:14;3.95;;;1.60;;
18125;SDS011;53956;52.442;13.284;2022-09-09T09:56:53;5.05;;;1.70;;
18125;SDS011;53956;52.442;13.284;2022-09-09T09:59:21;3.00;;;1.48;;
18125;SDS011;53956;52.442;13.284;2022-09-09T10:01:50;6.10;;;1.40;;
18125;SDS011;53956;52.442;13.284;2022-09-09T10:04:18;4.22;;;1.58;;
18125;SDS011;53956;52.442;13.284;2022-09-09T10:06:50;3.15;;;1.20;;
18125;SDS011;53956;52.442;13.284;2022-09-09T10:09:20;7.10;;;1.60;;
18125;SDS011;53956;52.442;13.284;2022-09-09T10:11:50;4.43;;;1.42;;
18125;SDS011;53956;52.442;13.284;2022-09-09T10:14:30;4.65;;;1.50;;
18125;SDS011;53956;52.442;13.284;2022-09-09T10:17:07;3.15;;;1.40;;
18125;SDS011;53956;52.442;13.284;2022-09-09T10:19:42;3.72;;;1.55;;
18125;SDS011;53956;52.442;13.284;2022-09-09T10:22:25;4.00;;;1.40;;
18125;SDS011;53956;52.442;13.284;2022-09-09T10:25:00;3.72;;;1.60;;
18125;SDS011;53956;52.442;13.284;2022-09-09T10:27:40;3.38;;;1.30;;
18125;SDS011;53956;52.442;13.284;2022-09-09T10:30:15;3.40;;;1.45;;
18125;SDS011;53956;52.442;13.284;2022-09-09T10:32:46;6.25;;;1.77;;
18125;SDS011;53956;52.442;13.284;2022-09-09T10:35:22;5.35;;;1.35;;
18125;SDS011;53956;52.442;13.284;2022-09-09T10:38:03;4.72;;;1.45;;
18125;SDS011;53956;52.442;13.284;2022-09-09T10:40:41;4.70;;;1.55;;
18125;SDS011;53956;52.442;13.284;2022-09-09T10:43:16;3.40;;;1.40;;
18125;SDS011;53956;52.442;13.284;2022-09-09T10:45:52;3.80;;;1.42;;
18125;SDS011;53956;52.442;13.284;2022-09-09T10:48:36;4.72;;;1.45;;
18125;SDS011;53956;52.442;13.284;2022-09-09T10:51:23;5.15;;;1.50;;
18125;SDS011;53956;52.442;13.284;2022-09-09T10:54:06;4.20;;;1.35;;
18125;SDS011;53956;52.442;13.284;2022-09-09T10:56:48;3.08;;;1.50;;
18125;SDS011;53956;52.442;13.284;2022-09-09T10:59:24;3.03;;;1.40;;
18125;SDS011;53956;52.442;13.284;2022-09-09T11:01:55;4.60;;;1.25;;
18125;SDS011;53956;52.442;13.284;2022-09-09T11:04:27;2.60;;;1.20;;
18125;SDS011;53956;52.442;13.284;2022-09-09T11:06:59;5.20;;;1.42;;
18125;SDS011;53956;52.442;13.284;2022-09-09T11:09:32;2.08;;;1.08;;
18125;SDS011;53956;52.442;13.284;2022-09-09T11:12:04;3.05;;;1.40;;
18125;SDS011;53956;52.442;13.284;2022-09-09T11:14:39;6.10;;;1.45;;
18125;SDS011;53956;52.442;13.284;2022-09-09T11:17:10;5.03;;;1.40;;
18125;SDS011;53956;52.442;13.284;2022-09-09T11:19:42;2.53;;;1.30;;
18125;SDS011;53956;52.442;13.284;2022-09-09T11:22:14;3.15;;;1.40;;
18125;SDS011;53956;52.442;13.284;2022-09-09T11:24:47;4.10;;;1.17;;
18125;SDS011;53956;52.442;13.284;2022-09-09T11:27:18;4.97;;;1.25;;
18125;SDS011;53956;52.442;13.284;2022-09-09T11:29:56;2.70;;;1.40;;
18125;SDS011;53956;52.442;13.284;2022-09-09T11:32:35;5.72;;;1.80;;
18125;SDS011;53956;52.442;13.284;2022-09-09T11:35:30;5.82;;;2.13;;
18125;SDS011;53956;52.442;13.284;2022-09-09T11:38:08;6.25;;;3.67;;
18125;SDS011;53956;52.442;13.284;2022-09-09T11:40:45;31.08;;;14.75;;
18125;SDS011;53956;52.442;13.284;2022-09-09T11:43:13;6.60;;;3.63;;
18125;SDS011;53956;52.442;13.284;2022-09-09T11:45:51;3.95;;;1.20;;
18125;SDS011;53956;52.442;13.284;2022-09-09T11:48:23;7.20;;;3.08;;
18125;SDS011;53956;52.442;13.284;2022-09-09T11:50:57;3.70;;;1.63;;
18125;SDS011;53956;52.442;13.284;2022-09-09T11:53:25;8.63;;;4.57;;
18125;SDS011;53956;52.442;13.284;2022-09-09T11:56:05;6.00;;;2.22;;
18125;SDS011;53956;52.442;13.284;2022-09-09T11:58:36;4.88;;;2.88;;
18125;SDS011;53956;52.442;13.284;2022-09-09T12:04:25;4.65;;;2.30;;
18125;SDS011;53956;52.442;13.284;2022-09-09T12:06:56;5.15;;;2.05;;
18125;SDS011;53956;52.442;13.284;2022-09-09T12:09:27;3.40;;;1.65;;
18125;SDS011;53956;52.442;13.284;2022-09-09T12:12:22;5.38;;;2.03;;
18125;SDS011;53956;52.442;13.284;2022-09-09T12:14:55;6.47;;;2.63;;
18125;SDS011;53956;52.442;13.284;2022-09-09T12:17:26;3.67;;;1.83;;
18125;SDS011;53956;52.442;13.284;2022-09-09T12:20:00;3.10;;;1.25;;
18125;SDS011;53956;52.442;13.284;2022-09-09T12:22:34;7.05;;;3.10;;
18125;SDS011;53956;52.442;13.284;2022-09-09T12:25:08;4.18;;;1.17;;
18125;SDS011;53956;52.442;13.284;2022-09-09T12:27:43;4.47;;;1.75;;
18125;SDS011;53956;52.442;13.284;2022-09-09T12:30:19;2.35;;;1.25;;
18125;SDS011;53956;52.442;13.284;2022-09-09T12:32:58;4.47;;;1.65;;
18125;SDS011;53956;52.442;13.284;2022-09-09T12:35:27;4.35;;;1.60;;
18125;SDS011;53956;52.442;13.284;2022-09-09T12:37:58;2.75;;;1.17;;
18125;SDS011;53956;52.442;13.284;2022-09-09T12:40:28;4.63;;;1.70;;
18125;SDS011;53956;52.442;13.284;2022-09-09T12:42:57;5.82;;;1.92;;
18125;SDS011;53956;52.442;13.284;2022-09-09T12:45:25;6.13;;;1.80;;
18125;SDS011;53956;52.442;13.284;2022-09-09T12:47:57;6.35;;;1.90;;
18125;SDS011;53956;52.442;13.284;2022-09-09T12:50:27;4.13;;;1.30;;
18125;SDS011;53956;52.442;13.284;2022-09-09T12:52:56;3.13;;;1.20;;
18125;SDS011;53956;52.442;13.284;2022-09-09T12:55:27;3.17;;;1.40;;
18125;SDS011;53956;52.442;13.284;2022-09-09T12:57:56;3.03;;;1.23;;
18125;SDS011;53956;52.442;13.284;2022-09-09T13:00:24;2.10;;;1.00;;
18125;SDS011;53956;52.442;13.284;2022-09-09T13:02:52;4.32;;;1.92;;
18125;SDS011;53956;52.442;13.284;2022-09-09T13:05:23;3.78;;;1.60;;
18125;SDS011;53956;52.442;13.284;2022-09-09T13:07:51;3.05;;;1.10;;
18125;SDS011;53956;52.442;13.284;2022-09-09T13:10:27;2.72;;;1.20;;
18125;SDS011;53956;52.442;13.284;2022-09-09T13:12:58;3.40;;;1.17;;
18125;SDS011;53956;52.442;13.284;2022-09-09T13:15:26;2.67;;;0.98;;
18125;SDS011;53956;52.442;13.284;2022-09-09T13:17:54;6.47;;;1.67;;
18125;SDS011;53956;52.442;13.284;2022-09-09T13:20:24;4.90;;;1.50;;
18125;SDS011;53956;52.442;13.284;2022-09-09T13:22:51;5.15;;;1.33;;
18125;SDS011;53956;52.442;13.284;2022-09-09T13:25:23;2.78;;;1.10;;
18125;SDS011;53956;52.442;13.284;2022-09-09T13:27:52;2.13;;;1.00;;
18125;SDS011;53956;52.442;13.284;2022-09-09T13:30:25;3.40;;;1.20;;
18125;SDS011;53956;52.442;13.284;2022-09-09T13:33:01;4.10;;;1.55;;
18125;SDS011;53956;52.442;13.284;2022-09-09T13:35:50;4.80;;;1.20;;
18125;SDS011;53956;52.442;13.284;2022-09-09T13:38:20;3.40;;;1.10;;
18125;SDS011;53956;52.442;13.284;2022-09-09T13:40:54;3.38;;;1.10;;
18125;SDS011;53956;52.442;13.284;2022-09-09T13:43:23;3.08;;;1.25;;
18125;SDS011;53956;52.442;13.284;2022-09-09T13:45:58;1.98;;;0.93;;
18125;SDS011;53956;52.442;13.284;2022-09-09T13:48:26;3.55;;;1.20;;
18125;SDS011;53956;52.442;13.284;2022-09-09T13:50:58;4.50;;;1.23;;
18125;SDS011;53956;52.442;13.284;2022-09-09T13:53:26;2.20;;;1.10;;
18125;SDS011;53956;52.442;13.284;2022-09-09T13:55:53;4.18;;;1.38;;
18125;SDS011;53956;52.442;13.284;2022-09-09T13:58:22;4.78;;;1.20;;
18125;SDS011;53956;52.442;13.284;2022-09-09T14:00:50;4.28;;;1.35;;
18125;SDS011;53956;52.442;13.284;2022-09-09T14:03:17;3.72;;;1.33;;
18125;SDS011;53956;52.442;13.284;2022-09-09T14:05:44;4.47;;;1.30;;
18125;SDS011;53956;52.442;13.284;2022-09-09T14:08:14;6.13;;;1.58;;
18125;SDS011;53956;52.442;13.284;2022-09-09T14:10:51;3.72;;;1.20;;
18125;SDS011;53956;52.442;13.284;2022-09-09T14:13:18;3.70;;;1.45;;
18125;SDS011;53956;52.442;13.284;2022-09-09T14:15:47;4.15;;;1.33;;
18125;SDS011;53956;52.442;13.284;2022-09-09T14:18:14;4.53;;;1.30;;
18125;SDS011;53956;52.442;13.284;2022-09-09T14:20:41;3.10;;;1.00;;
18125;SDS011;53956;52.442;13.284;2022-09-09T14:23:09;5.57;;;1.35;;
18125;SDS011;53956;52.442;13.284;2022-09-09T14:25:40;4.13;;;1.20;;
18125;SDS011;53956;52.442;13.284;2022-09-09T14:28:08;2.92;;;1.13;;
18125;SDS011;53956;52.442;13.284;2022-09-09T14:30:37;3.90;;;1.05;;
18125;SDS011;53956;52.442;13.284;2022-09-09T14:33:04;5.53;;;2.60;;
18125;SDS011;53956;52.442;13.284;2022-09-09T14:35:31;6.10;;;1.70;;
18125;SDS011;53956;52.442;13.284;2022-09-09T14:37:58;6.65;;;1.63;;
18125;SDS011;53956;52.442;13.284;2022-09-09T14:40:26;3.05;;;1.30;;
18125;SDS011;53956;52.442;13.284;2022-09-09T14:42:54;3.95;;;1.50;;
18125;SDS011;53956;52.442;13.284;2022-09-09T14:45:21;3.00;;;1.10;;
18125;SDS011;53956;52.442;13.284;2022-09-09T14:47:50;4.93;;;1.33;;
18125;SDS011;53956;52.442;13.284;2022-09-09T14:50:17;3.85;;;1.23;;
18125;SDS011;53956;52.442;13.284;2022-09-09T14:52:43;5.30;;;1.33;;
18125;SDS011;53956;52.442;13.284;2022-09-09T14:55:10;3.28;;;1.40;;
18125;SDS011;53956;52.442;13.284;2022-09-09T14:57:37;1.92;;;1.08;;
18125;SDS011;53956;52.442;13.284;2022-09-09T15:00:07;3.22;;;1.20;;
18125;SDS011;53956;52.442;13.284;2022-09-09T15:02:35;3.42;;;1.08;;
18125;SDS011;53956;52.442;13.284;2022-09-09T15:05:01;3.42;;;1.10;;
18125;SDS011;53956;52.442;13.284;2022-09-09T15:07:29;3.03;;;1.13;;